Flight Track Log - Related Links

Times and Time Zones

All times are in EDT time to prevent confusion due to time zone crossing. See the JIA9346 flight status page for this flight to view local times or setup timezone preferences in your user account.

Time Position Orientation Groundspeed Altitude Reporting Facility
EDT Latitude Longitude Course Direction KTS MPH feet Rate Location/Type
Sat 09:52:35 PM 35.1992 -80.9353 146° Southeast 149 171 1,700  Level Atlanta Center
Sat 09:53:42 PM 35.1608 -80.9039 146° Southeast 205 236 4,200 2,361 Climbing Atlanta Center
Sat 09:54:37 PM 35.1650 -80.8247 86° East 293 337 6,500 2,426 Climbing Atlanta Center
Sat 09:56:45 PM 35.3378 -80.8131 North 319 367 11,600 2,298 Climbing Atlanta Center
Sat 09:57:45 PM 35.4364 -80.8347 350° North 339 390 13,700 2,350 Climbing Atlanta Center
Sat 09:58:45 PM 35.5372 -80.8511 352° North 360 414 16,300 2,300 Climbing Atlanta Center
Sat 09:59:45 PM 35.6378 -80.8728 350° North 360 414 18,300 1,750 Climbing Atlanta Center
Sat 10:00:45 PM 35.7425 -80.8867 354° North 373 429 19,800 1,500 Climbing Atlanta Center
Sat 10:01:45 PM 35.8489 -80.8850 North 378 435 21,300 1,500 Climbing Atlanta Center
Sat 10:02:45 PM 35.9403 -80.9533 329° Northwest 373 429 22,800 1,250 Climbing Atlanta Center
Sat 10:03:45 PM 36.0317 -81.0192 330° Northwest 373 429 23,800 1,000 Climbing Atlanta Center
Sat 10:04:45 PM 36.1272 -81.0903 329° Northwest 393 452 24,800 1,000 Climbing Atlanta Center
Sat 10:05:45 PM 36.2247 -81.1639 329° Northwest 401 461 25,800 950 Climbing Atlanta Center
Sat 10:06:45 PM 36.3203 -81.2353 329° Northwest 401 461 26,700 800 Climbing Atlanta Center
Sat 10:07:45 PM 36.4200 -81.3092 329° Northwest 413 475 27,400 443 Climbing Atlanta Center
Sat 10:09:41 PM 36.6131 -81.4564 329° Northwest 428 493 28,000 203 Climbing Indianapolis Center
Sat 10:10:42 PM 36.7150 -81.5306 330° Northwest 448 516 28,000  Level Indianapolis Center
Sat 10:11:43 PM 36.8247 -81.6125 329° Northwest 456 525 28,000  Level Indianapolis Center
Sat 10:12:44 PM 36.9522 -81.7086 329° Northwest 460 529 28,000  Level Indianapolis Center
Sat 10:13:45 PM 37.0597 -81.7922 328° Northwest 458 527 28,000  Level Indianapolis Center
Sat 10:14:46 PM 37.1689 -81.8750 329° Northwest 460 529 28,000  Level Indianapolis Center
Sat 10:15:46 PM 37.2764 -81.9578 329° Northwest 456 525 28,000  Level Indianapolis Center
Sat 10:16:47 PM 37.3972 -82.0231 337° Northwest 470 541 28,000  Level Indianapolis Center
Sat 10:17:48 PM 37.5211 -82.0794 340° North 473 544 28,000  Level Indianapolis Center
Sat 10:18:49 PM 37.6444 -82.1350 340° North 473 544 28,000  Level Indianapolis Center
Sat 10:19:50 PM 37.7697 -82.1933 340° North 479 551 28,000  Level Indianapolis Center
Sat 10:20:50 PM 37.8936 -82.2517 340° North 477 549 28,000 -149 Level Indianapolis Center
Sat 10:21:51 PM 38.0189 -82.3108 340° North 479 551 27,700 -885 Descending Indianapolis Center
Sat 10:22:52 PM 38.1389 -82.3761 337° Northwest 478 550 26,200 -1,525 Descending Indianapolis Center
Sat 10:23:53 PM 38.2361 -82.4714 322° Northwest 442 509 24,600 -1,475 Descending Indianapolis Center
Sat 10:24:54 PM 38.3250 -82.5594 322° Northwest 420 483 23,200 -1,438 Descending Indianapolis Center
Sat 10:25:54 PM 38.4119 -82.6469 322° Northwest 404 465 21,700 -1,488 Descending Indianapolis Center
Sat 10:26:55 PM 38.5028 -82.7394 321° Northwest 365 420 20,200 -836 Descending Indianapolis Center
Sat 10:27:56 PM 38.5867 -82.8214 323° Northwest 376 433 20,000 -98 Descending Indianapolis Center
Sat 10:28:57 PM 38.6589 -82.8931 322° Northwest 380 437 20,000  Level Indianapolis Center
Sat 10:29:57 PM 38.7425 -82.9761 322° Northwest 379 436 20,000  Level Indianapolis Center
Sat 10:30:58 PM 38.8289 -83.0639 322° Northwest 392 451 20,000  Level Indianapolis Center
Sat 10:31:59 PM 38.9178 -83.1550 321° Northwest 405 466 20,000 -393 Level Indianapolis Center
Sat 10:33:00 PM 39.0081 -83.2472 322° Northwest 402 463 19,200 -1,388 Descending Indianapolis Center
Sat 10:34:00 PM 39.0983 -83.3364 323° Northwest 403 464 17,200 -1,835 Descending Indianapolis Center
Sat 10:35:01 PM 39.1822 -83.4217 322° Northwest 379 436 15,500 -1,721 Descending Indianapolis Center
Sat 10:36:02 PM 39.2622 -83.5008 323° Northwest 361 415 13,700 -1,736 Descending Indianapolis Center
Sat 10:37:02 PM 39.3397 -83.5814 321° Northwest 355 409 12,000 -1,388 Descending Indianapolis Center
Sat 10:38:03 PM 39.4225 -83.6631 323° Northwest 366 421 10,900 -984 Descending Indianapolis Center
Sat 10:39:04 PM 39.5056 -83.7339 327° Northwest 357 411 10,000 -492 Descending Indianapolis Center
Sat 10:40:05 PM 39.5814 -83.7994 326° Northwest 331 381 9,900 -1,041 Descending Indianapolis Center
Sat 10:41:05 PM 39.6461 -83.8561 326° Northwest 282 325 7,900 -2,067 Descending Indianapolis Center
Sat 10:41:35 PM 39.6864 -83.8908 326° Northwest 276 318 6,800 -1,672 Descending Indianapolis Center
Sat 10:42:06 PM 39.7125 -83.9128 327° Northwest 280 322 6,200 -1,475 Descending Indianapolis Center
Sat 10:42:36 PM 39.7519 -83.9486 325° Northwest 282 325 5,300 -1,475 Descending Indianapolis Center
Sat 10:43:07 PM 39.7786 -83.9703 328° Northwest 283 326 4,700 -1,043 Descending Indianapolis Center
Sat 10:44:08 PM 39.8419 -84.0256 326° Northwest 277 319 3,700 -843 Descending Indianapolis Center
Sat 10:45:08 PM 39.8975 -84.0739 326° Northwest 256 295 3,000 -733 Descending Indianapolis Center
Sat 10:45:38 PM 39.9214 -84.0983 322° Northwest 180 207 2,600 -393 Descending Indianapolis Center
Sat 10:46:09 PM 39.9397 -84.1142 326° Northwest 212 244 2,600 -457 Level Indianapolis Center
Sat 10:47:10 PM 39.9386 -84.1636 268° West 161 185 1,900 -689 Descending Indianapolis Center
Sat 10:48:11 PM 39.9156 -84.2067 235° Southwest 148 170 1,200 -397 Descending Indianapolis Center
Sat 10:49:11 PM 39.8936 -84.2453 233° Southwest 147 169 1,100 -100 Descending Indianapolis Center

Login

Don't have an account? Register now (free) for customized features, flight alerts, and more!